Flight Track Log - Related Links

Times and Time Zones

All times are in EDT time to prevent confusion due to time zone crossing. See the N27XP flight status page for this flight to view local times or setup timezone preferences in your user account.


Time Position Orientation Groundspeed Altitude Reporting Facility
EDT Latitude Longitude Course Direction KTS MPH feet Rate Location/Type
Sun 03:38:09 PM 35.2828 -79.3608 326° Northwest 189 217 2,900  Level Washington Center
Sun 03:39:09 PM 35.3306 -79.4000 326° Northwest 219 252 4,800 1,975 Climbing Washington Center
Sun 03:39:28 PM 35.3456 -79.4200 313° West 237 273 5,500 2,156 Climbing Washington Center
Sun 03:40:13 PM 35.3778 -79.4589 315° West 246 283 7,100 2,500 Climbing Washington Center
Sun 03:41:16 PM 35.4428 -79.5103 327° Northwest 264 304 10,000 2,516 Climbing Washington Center
Sun 03:42:17 PM 35.5231 -79.4806 17° North 303 349 12,300 1,920 Climbing Washington Center
Sun 03:43:21 PM 35.5692 -79.3742 62° Northeast 341 392 14,000 1,680 Climbing Washington Center
Sun 03:44:22 PM 35.5772 -79.2472 86° East 371 427 15,800 1,872 Climbing Washington Center
Sun 03:45:26 PM 35.6417 -79.1319 55° Northeast 384 442 17,900 1,935 Climbing Washington Center
Sun 03:46:26 PM 35.7289 -79.0800 26° Northeast 362 417 19,800 1,884 Climbing Washington Center
Sun 03:47:27 PM 35.8208 -79.0181 29° Northeast 372 428 21,700 1,776 Climbing Washington Center
Sun 03:48:31 PM 35.9161 -78.9508 30° Northeast 388 447 23,500 1,824 Climbing Washington Center
Sun 03:49:32 PM 36.0114 -78.8872 28° Northeast 388 447 25,500 1,872 Climbing Washington Center
Sun 03:50:36 PM 36.1042 -78.8214 30° Northeast 385 443 27,400 1,968 Climbing Washington Center
Sun 03:51:37 PM 36.2136 -78.7489 28° Northeast 374 430 29,600 1,839 Climbing Washington Center
Sun 03:52:40 PM 36.3053 -78.6844 30° Northeast 374 430 31,200 1,220 Climbing Washington Center
Sun 03:53:40 PM 36.3981 -78.6208 29° Northeast 377 434 32,100 919 Climbing Washington Center
Sun 03:54:44 PM 36.4944 -78.5542 29° Northeast 391 450 33,100 912 Climbing Washington Center
Sun 03:55:45 PM 36.5919 -78.4858 29° Northeast 397 457 34,000 816 Climbing Washington Center
Sun 03:56:49 PM 36.6850 -78.3989 37° Northeast 403 464 34,800 672 Climbing Washington Center
Sun 03:57:50 PM 36.7775 -78.3142 36° Northeast 411 473 35,400 585 Climbing Washington Center
Sun 03:58:52 PM 36.8892 -78.2097 37° Northeast 418 481 36,000 288 Climbing Washington Center
Sun 03:59:55 PM 36.9853 -78.1211 36° Northeast 427 491 36,000  Level Washington Center
Sun 04:00:56 PM 37.0839 -78.0292 37° Northeast 440 506 36,000  Level Washington Center
Sun 04:02:00 PM 37.1864 -77.9325 37° Northeast 457 526 36,000  Level Washington Center
Sun 04:03:00 PM 37.2917 -77.8358 36° Northeast 464 534 36,000  Level Washington Center
Sun 04:04:02 PM 37.4178 -77.7167 37° Northeast 471 542 36,000  Level Washington Center
Sun 04:05:05 PM 37.5231 -77.6172 37° Northeast 471 542 36,000 -528 Level Washington Center
Sun 04:06:07 PM 37.6289 -77.5164 37° Northeast 473 544 34,900 -1,574 Descending Washington Center
Sun 04:07:07 PM 37.7381 -77.4131 37° Northeast 481 554 32,800 -1,887 Descending Washington Center
Sun 04:08:11 PM 37.8469 -77.3092 37° Northeast 489 563 31,000 -1,440 Descending Washington Center
Sun 04:09:12 PM 37.9556 -77.2111 35° Northeast 486 559 29,800 -960 Descending Washington Center
Sun 04:10:16 PM 38.0933 -77.1033 32° Northeast 485 558 29,000 -387 Descending Washington Center
Sun 04:11:16 PM 38.2058 -77.0119 33° Northeast 484 557 29,000  Level Washington Center
Sun 04:12:20 PM 38.3056 -76.9306 33° Northeast 484 557 29,000  Level Washington Center
Sun 04:13:22 PM 38.4383 -76.8231 32° Northeast 478 550 29,000 -146 Level Washington Center
Sun 04:14:23 PM 38.5497 -76.7317 33° Northeast 478 550 28,700 -871 Descending Washington Center
Sun 04:15:26 PM 38.6603 -76.6417 32° Northeast 477 549 27,200 -1,742 Descending Washington Center
Sun 04:16:27 PM 38.7711 -76.5503 33° Northeast 476 548 25,100 -1,561 Descending Washington Center
Sun 04:17:29 PM 38.8817 -76.4589 33° Northeast 476 548 24,000 -528 Descending Washington Center
Sun 04:18:32 PM 39.0122 -76.3511 33° Northeast 470 541 24,000  Level Washington Center
Sun 04:19:33 PM 39.1194 -76.2617 33° Northeast 464 534 24,000  Level Washington Center
Sun 04:20:37 PM 39.2208 -76.1472 41° Northeast 464 534 24,000  Level Washington Center
Sun 04:21:37 PM 39.3228 -76.0431 38° Northeast 464 534 24,000 -1,016 Level Washington Center
Sun 04:22:41 PM 39.4253 -75.9475 36° Northeast 461 531 21,900 -2,238 Descending Washington Center
Sun 04:23:43 PM 39.5261 -75.8519 36° Northeast 454 522 19,300 -2,439 Descending Washington Center
Sun 04:24:44 PM 39.6211 -75.7636 36° Northeast 427 491 16,900 -2,544 Descending Washington Center
Sun 04:25:48 PM 39.7319 -75.6614 35° Northeast 410 472 14,000 -1,887 Descending Washington Center
Sun 04:26:48 PM 39.8208 -75.5803 35° Northeast 396 456 13,000 -484 Descending Washington Center
Sun 04:27:52 PM 39.9050 -75.5042 35° Northeast 374 430 13,000  Level Washington Center
Sun 04:28:52 PM 39.9886 -75.4253 36° Northeast 369 425 13,000  Level Washington Center
Sun 04:29:56 PM 40.0731 -75.3472 35° Northeast 368 423 13,000 -96 Level Washington Center
Sun 04:30:57 PM 40.1575 -75.2683 36° Northeast 368 423 12,800 -871 Descending Washington Center
Sun 04:32:00 PM 40.2389 -75.1914 36° Northeast 363 418 11,200 -1,200 Descending Washington Center
Sun 04:32:57 PM 40.3167 -75.1167 36° Northeast 285 328 10,400 -1,590 Descending New York TRACON
Sun 04:33:57 PM 40.3667 -75.0500 45° Northeast 285 328 8,100 -2,150 Descending New York TRACON
Sun 04:34:57 PM 40.4167 -74.9667 52° Northeast 279 321 6,100 -2,000 Descending New York TRACON
Sun 04:35:57 PM 40.4667 -74.9000 45° Northeast 257 296 4,100 -1,059 Descending New York TRACON
Sun 04:36:56 PM 40.5167 -74.8333 45° Northeast 250 288 4,000 -151 Descending New York TRACON
Sun 04:37:56 PM 40.5500 -74.7667 57° Northeast 237 273 3,800 -500 Descending New York TRACON
Sun 04:38:56 PM 40.5833 -74.6833 62° Northeast 238 274 3,000 -400 Descending New York TRACON
Sun 04:39:56 PM 40.6167 -74.6167 57° Northeast 239 275 3,000  Level New York TRACON
Sun 04:40:51 PM 40.6667 -74.5500 45° Northeast 230 265 3,000 -250 Level New York TRACON
Sun 04:41:56 PM 40.7167 -74.5000 37° Northeast 212 244 2,500 -672 Descending New York TRACON
Sun 04:42:56 PM 40.7500 -74.4667 37° Northeast 181 208 1,600 -900 Descending New York TRACON
Sun 04:43:56 PM 40.7833 -74.4333 37° Northeast 120 138 700 -900 Descending New York TRACON

Login

Don't have an account? Register now (free) for customized features, flight alerts, and more!